Time;durP1;ratioP1;P1;durP2;ratioP2;P2;SDS_P1;SDS_P2;PMS_P1;PMS_P2;Temp;Humidity;BMP_temperature;BMP_pressure;BME280_temperature;BME280_humidity;BME280_pressure;Samples;Min_cycle;Max_cycle;Signal;HPM_P1;HPM_P2
2021/06/03 00:00:43;;;;;;;13.65;10.82;;;;;;;17.34;85.01;98910.94;6170570;23;20051;-76
2021/06/03 00:03:09;;;;;;;14.57;11.60;;;;;;;17.35;84.91;98906.38;6220669;23;20487;-77
2021/06/03 00:05:40;;;;;;;15.45;11.45;;;;;;;17.34;84.83;98893.84;6170399;23;20026;-76
2021/06/03 00:08:06;;;;;;;15.57;11.57;;;;;;;17.39;85.26;98910.41;6219693;23;20015;-78
2021/06/03 00:10:34;;;;;;;18.88;13.00;;;;;;;17.36;84.93;98905.34;6169737;23;20011;-75
2021/06/03 00:13:00;;;;;;;18.20;13.55;;;;;;;17.41;84.68;98921.84;6195115;23;20498;-76
2021/06/03 00:15:26;;;;;;;22.85;15.35;;;;;;;17.33;84.80;98905.69;6194699;23;20020;-77
2021/06/03 00:17:53;;;;;;;21.77;14.98;;;;;;;17.43;84.81;98917.97;6220064;23;20408;-76
2021/06/03 00:20:21;;;;;;;19.42;15.13;;;;;;;17.38;84.94;98906.03;6195349;23;20497;-77
2021/06/03 00:22:47;;;;;;;21.38;14.50;;;;;;;17.47;84.75;98913.03;6244979;23;20023;-78
2021/06/03 00:25:13;;;;;;;18.00;13.63;;;;;;;17.46;84.73;98916.78;6195153;23;20024;-77
2021/06/03 00:27:39;;;;;;;17.77;13.48;;;;;;;17.44;84.58;98922.34;6219509;23;20123;-78
2021/06/03 00:30:06;;;;;;;16.55;13.75;;;;;;;17.56;84.29;98914.66;6219541;23;20030;-77
2021/06/03 00:32:32;;;;;;;15.52;13.23;;;;;;;17.55;84.44;98913.00;6245508;23;20374;-77
2021/06/03 00:34:58;;;;;;;17.30;13.85;;;;;;;17.64;84.44;98917.34;6219405;23;20020;-77
2021/06/03 00:37:25;;;;;;;20.40;13.77;;;;;;;17.72;84.24;98925.41;6219674;23;20024;-77
2021/06/03 00:39:51;;;;;;;19.45;14.65;;;;;;;17.83;83.80;98912.53;6169902;23;20405;-77
2021/06/03 00:42:17;;;;;;;25.80;20.17;;;;;;;17.90;83.53;98927.00;6219663;23;20031;-78
2021/06/03 00:44:43;;;;;;;27.48;23.77;;;;;;;17.99;83.02;98904.28;6194318;23;20023;-76
2021/06/03 00:47:09;;;;;;;44.63;32.47;;;;;;;18.10;82.70;98917.38;6194598;23;20078;-77
2021/06/03 00:49:35;;;;;;;35.05;25.88;;;;;;;18.05;82.34;98914.38;6244308;23;20027;-77
2021/06/03 00:52:01;;;;;;;29.33;19.75;;;;;;;17.99;81.98;98909.69;6194263;23;20020;-77
2021/06/03 00:54:27;;;;;;;22.08;16.50;;;;;;;17.94;82.33;98894.03;6194273;23;20020;-77
2021/06/03 00:56:53;;;;;;;20.55;14.43;;;;;;;18.09;81.87;98904.91;6195282;23;20483;-77
2021/06/03 00:59:19;;;;;;;26.38;16.88;;;;;;;17.80;82.26;98897.50;6194913;23;20020;-76
2021/06/03 01:01:45;;;;;;;29.10;19.52;;;;;;;17.63;82.41;98890.47;6219569;23;20404;-77
2021/06/03 01:04:16;;;;;;;22.63;17.85;;;;;;;17.77;82.64;98900.56;6244375;23;20020;-77
2021/06/03 01:06:43;;;;;;;20.38;16.20;;;;;;;17.71;82.35;98896.69;6220673;23;20024;-76
2021/06/03 01:09:19;;;;;;;20.95;15.70;;;;;;;17.51;82.92;98878.41;6194328;23;20012;-77
2021/06/03 01:11:58;;;;;;;22.77;14.95;;;;;;;17.54;82.62;98889.69;6196241;23;20016;-78
2021/06/03 01:14:25;;;;;;;27.42;20.30;;;;;;;17.54;82.93;98903.22;6219568;23;20046;-78
2021/06/03 01:16:53;;;;;;;25.73;20.25;;;;;;;17.66;83.07;98899.06;6172274;23;20344;-77
2021/06/03 01:19:25;;;;;;;28.00;20.95;;;;;;;17.68;83.18;98891.66;6234136;23;20071;-77
2021/06/03 01:22:02;;;;;;;26.73;21.00;;;;;;;17.76;82.88;98890.78;6204913;23;20030;-77
2021/06/03 01:24:40;;;;;;;26.45;19.35;;;;;;;17.69;82.61;98885.22;6196682;23;20028;-77
2021/06/03 01:27:29;;;;;;;16.92;13.85;;;;;;;17.69;82.67;98884.38;6221402;22;20027;-78
2021/06/03 01:30:05;;;;;;;26.98;18.42;;;;;;;17.55;82.96;98872.47;6195161;23;20016;-77
2021/06/03 01:32:33;;;;;;;46.33;28.95;;;;;;;17.51;82.81;98863.03;6219975;23;20016;-77
2021/06/03 01:35:00;;;;;;;50.70;29.40;;;;;;;17.47;82.79;98872.50;6195003;23;20012;-77
2021/06/03 01:37:27;;;;;;;67.32;39.35;;;;;;;17.37;83.16;98875.44;6194540;23;20024;-78
2021/06/03 01:39:54;;;;;;;100.70;51.50;;;;;;;17.49;82.84;98875.91;6195355;23;20020;-77
2021/06/03 01:42:21;;;;;;;128.70;62.35;;;;;;;17.35;83.47;98871.25;6194437;23;20106;-77
2021/06/03 01:44:47;;;;;;;103.50;58.20;;;;;;;17.34;83.50;98873.09;6194682;23;20020;-77
2021/06/03 01:47:13;;;;;;;115.50;62.25;;;;;;;17.35;83.36;98869.38;6194073;23;20032;-77
2021/06/03 01:49:41;;;;;;;120.15;61.80;;;;;;;17.33;83.27;98865.16;6244104;23;20024;-77
2021/06/03 01:52:08;;;;;;;86.85;45.65;;;;;;;17.37;83.43;98877.28;6169080;23;20024;-76
2021/06/03 01:54:35;;;;;;;82.72;44.47;;;;;;;17.28;83.38;98862.16;6194150;23;20043;-76
2021/06/03 01:57:03;;;;;;;55.97;33.58;;;;;;;17.49;83.25;98875.91;6169805;23;20024;-77
2021/06/03 01:59:33;;;;;;;72.88;41.67;;;;;;;17.53;82.78;98879.91;6170731;23;20020;-77
2021/06/03 02:02:00;;;;;;;80.55;43.20;;;;;;;17.47;83.07;98869.81;6194072;23;20412;-77
2021/06/03 02:04:26;;;;;;;156.63;76.03;;;;;;;17.44;83.19;98870.16;6219127;23;20020;-78
2021/06/03 02:06:53;;;;;;;164.45;81.60;;;;;;;17.44;83.10;98867.47;6193734;23;20479;-76
2021/06/03 02:09:22;;;;;;;163.65;83.68;;;;;;;17.44;82.76;98857.50;6218707;23;20023;-79
2021/06/03 02:11:51;;;;;;;160.75;76.80;;;;;;;17.47;82.43;98854.44;6193688;23;20026;-79
2021/06/03 02:14:23;;;;;;;169.35;81.72;;;;;;;17.26;83.03;98850.69;6195876;23;20456;-79
2021/06/03 02:16:55;;;;;;;123.53;69.90;;;;;;;17.30;83.60;98855.56;6194236;23;20024;-83
2021/06/03 02:19:50;;;;;;;140.00;71.68;;;;;;;17.41;83.24;98867.81;6149428;23;20024;-79
2021/06/03 02:22:20;;;;;;;149.65;75.57;;;;;;;17.30;83.09;98849.31;6205056;23;20028;-86
2021/06/03 02:24:48;;;;;;;;;;;;;;;17.37;83.18;98850.28;6219717;23;20634;-78
2021/06/03 02:27:16;;;;;;;151.20;82.97;;;;;;;17.21;83.52;98848.53;6218522;22;20045;-77
2021/06/03 02:29:44;;;;;;;167.35;83.13;;;;;;;17.31;83.51;98859.13;6218213;23;20091;-78
2021/06/03 02:32:16;;;;;;;157.75;81.90;;;;;;;17.31;83.64;98867.22;6219621;23;20020;-78
2021/06/03 02:34:47;;;;;;;112.93;61.28;;;;;;;17.19;83.80;98854.13;6194188;23;20023;-78
2021/06/03 02:37:14;;;;;;;88.28;50.50;;;;;;;17.22;83.91;98863.69;6219054;23;20090;-77
2021/06/03 02:39:48;;;;;;;77.53;49.40;;;;;;;17.34;83.33;98858.72;6218732;23;20025;-77
2021/06/03 02:42:16;;;;;;;66.18;46.45;;;;;;;17.51;83.20;98857.63;6244094;23;20016;-77
2021/06/03 02:44:42;;;;;;;60.85;37.13;;;;;;;17.43;83.21;98845.00;6219036;23;20027;-77
2021/06/03 02:47:09;;;;;;;95.88;55.15;;;;;;;17.54;82.39;98832.94;6169358;23;20027;-75
2021/06/03 02:49:36;;;;;;;138.05;75.18;;;;;;;17.65;82.75;98837.94;6218880;23;20016;-78
2021/06/03 02:52:06;;;;;;;142.18;75.50;;;;;;;17.65;82.50;98842.50;6193638;23;20020;-78
2021/06/03 02:54:34;;;;;;;137.52;76.35;;;;;;;17.56;82.40;98822.78;6169571;23;20030;-86
2021/06/03 02:57:00;;;;;;;115.22;61.17;;;;;;;17.54;82.32;98826.72;6217910;23;20016;-80
2021/06/03 02:59:28;;;;;;;99.95;58.30;;;;;;;17.55;82.39;98818.41;6219119;23;20048;-79
2021/06/03 03:01:55;;;;;;;87.45;54.28;;;;;;;17.67;82.55;98825.06;6194862;23;20031;-80
2021/06/03 03:04:22;;;;;;;47.90;33.75;;;;;;;17.78;81.75;98820.28;6244286;23;20027;-83
2021/06/03 03:06:48;;;;;;;32.78;21.92;;;;;;;17.84;81.72;98814.16;6219433;23;20024;-80
2021/06/03 03:09:16;;;;;;;18.88;15.13;;;;;;;17.90;81.32;98813.41;6218900;23;20078;-83
2021/06/03 03:11:42;;;;;;;19.05;16.67;;;;;;;17.84;81.45;98814.16;6194793;23;20432;-86
2021/06/03 03:14:08;;;;;;;24.02;16.77;;;;;;;17.90;81.16;98821.53;6220649;23;20518;-79
2021/06/03 03:16:37;;;;;;;48.25;31.25;;;;;;;17.81;81.01;98817.25;6196730;23;20043;-79
2021/06/03 03:19:05;;;;;;;51.33;35.97;;;;;;;18.13;80.49;98835.88;6171180;23;20023;-79
2021/06/03 03:21:35;;;;;;;42.00;30.02;;;;;;;18.18;79.57;98828.03;6221401;23;20024;-77
2021/06/03 03:24:02;;;;;;;35.47;23.00;;;;;;;18.22;79.43;98833.09;6195304;23;20016;-78
2021/06/03 03:26:29;;;;;;;27.08;20.58;;;;;;;18.07;79.80;98833.91;6196046;23;20020;-79
2021/06/03 03:28:55;;;;;;;22.33;19.40;;;;;;;18.18;79.70;98838.03;6194418;23;20031;-79
2021/06/03 03:31:22;;;;;;;20.67;18.48;;;;;;;18.18;79.31;98833.47;6195159;23;20035;-79
2021/06/03 03:33:49;;;;;;;20.23;17.80;;;;;;;18.36;79.56;98840.41;6220702;23;20023;-77
2021/06/03 03:36:16;;;;;;;21.23;16.38;;;;;;;18.47;79.08;98842.66;6195016;23;20023;-79
2021/06/03 03:38:46;;;;;;;18.23;13.43;;;;;;;18.33;78.55;98840.75;6197309;23;20027;-77
2021/06/03 03:41:12;;;;;;;14.80;13.30;;;;;;;18.32;78.68;98847.22;6170212;23;20478;-80
2021/06/03 03:43:39;;;;;;;16.60;14.38;;;;;;;18.16;79.03;98843.59;6194617;23;20074;-81
2021/06/03 03:46:06;;;;;;;17.20;15.40;;;;;;;18.14;79.72;98847.53;6220618;23;20031;-77
2021/06/03 03:48:34;;;;;;;16.77;15.07;;;;;;;18.14;79.52;98853.78;6249318;23;20020;-78
2021/06/03 03:51:02;;;;;;;16.15;14.45;;;;;;;18.20;79.74;98863.00;6236707;23;20023;-83
2021/06/03 03:53:36;;;;;;;17.02;14.70;;;;;;;18.35;79.19;98860.34;6206337;23;20020;-80
2021/06/03 03:56:03;;;;;;;15.88;14.27;;;;;;;18.37;79.15;98871.84;6227936;23;20020;-78
2021/06/03 03:58:36;;;;;;;15.85;14.27;;;;;;;18.41;78.68;98867.72;6253436;23;20043;-78
2021/06/03 04:01:02;;;;;;;17.13;15.48;;;;;;;18.42;78.65;98855.88;6204471;23;20085;-83
2021/06/03 04:03:30;;;;;;;16.53;14.87;;;;;;;18.52;78.81;98872.69;6203045;23;20115;-83
2021/06/03 04:06:00;;;;;;;15.48;13.90;;;;;;;18.48;78.71;98860.56;6227249;23;20247;-78
2021/06/03 04:08:27;;;;;;;12.80;11.48;;;;;;;18.66;78.59;98858.34;6230185;23;20397;-86
2021/06/03 04:11:04;;;;;;;11.85;9.52;;;;;;;18.42;79.04;98853.16;5139323;27;20400;-87
2021/06/03 04:13:36;;;;;;;11.05;10.05;;;;;;;18.26;79.52;98853.34;5070871;28;20495;-84
2021/06/03 04:16:06;;;;;;;13.70;11.48;;;;;;;18.10;80.12;98847.06;5120088;28;20050;-88
2021/06/03 04:18:34;;;;;;;15.35;11.55;;;;;;;18.10;80.71;98849.78;5120120;28;20078;-87
2021/06/03 04:21:00;;;;;;;12.27;10.98;;;;;;;18.09;80.77;98861.63;5107460;28;20055;-91
2021/06/03 04:23:27;;;;;;;13.68;12.38;;;;;;;18.09;80.52;98868.88;5119975;28;20090;-79
2021/06/03 04:25:53;;;;;;;15.32;13.13;;;;;;;18.12;80.83;98877.47;5119047;28;20063;-80
2021/06/03 04:28:19;;;;;;;15.15;13.65;;;;;;;18.24;80.29;98883.28;5121811;28;20040;-80
2021/06/03 04:30:45;;;;;;;14.38;12.95;;;;;;;18.38;79.98;98898.69;5123084;28;20055;-80
2021/06/03 04:33:11;;;;;;;14.32;12.82;;;;;;;18.32;80.06;98894.03;5131804;28;20035;-81
2021/06/03 04:35:38;;;;;;;13.65;12.43;;;;;;;18.34;79.94;98881.16;5106722;28;20448;-83
2021/06/03 04:38:04;;;;;;;13.70;11.55;;;;;;;18.66;79.34;98901.66;5085204;28;20035;-82
2021/06/03 04:40:31;;;;;;;13.80;12.40;;;;;;;18.91;79.06;98895.97;5085552;28;20052;-80
2021/06/03 04:43:00;;;;;;;28.10;20.92;;;;;;;19.05;79.00;98900.56;5096563;28;20050;-78
2021/06/03 04:45:26;;;;;;;15.70;13.52;;;;;;;19.37;78.38;98901.19;5096093;28;20039;-79
2021/06/03 04:47:53;;;;;;;17.17;14.90;;;;;;;19.62;77.72;98902.53;5112429;28;20044;-80
2021/06/03 04:50:20;;;;;;;16.25;13.90;;;;;;;19.80;76.40;98887.72;5095337;28;20047;-87
2021/06/03 04:52:47;;;;;;;13.23;10.95;;;;;;;19.77;75.17;98882.66;5095129;28;20089;-79
2021/06/03 04:55:19;;;;;;;13.10;11.00;;;;;;;19.88;75.81;98880.28;5077806;28;20044;-79
2021/06/03 04:57:45;;;;;;;12.18;9.68;;;;;;;20.19;74.89;98865.53;5076032;28;20039;-80
2021/06/03 05:00:14;;;;;;;18.35;10.68;;;;;;;20.11;73.96;98879.22;5093302;28;20082;-80
2021/06/03 05:02:41;;;;;;;15.40;10.05;;;;;;;19.95;74.30;98857.81;5076059;28;20051;-80
2021/06/03 05:05:13;;;;;;;15.63;10.20;;;;;;;19.94;74.15;98862.41;5075387;28;20098;-80
2021/06/03 05:07:39;;;;;;;13.25;9.20;;;;;;;20.03;74.31;98863.94;5076252;28;20044;-81
2021/06/03 05:10:06;;;;;;;16.60;10.40;;;;;;;20.21;73.47;98854.47;5075635;28;20150;-81
2021/06/03 05:12:33;;;;;;;17.30;11.55;;;;;;;20.30;73.10;98845.97;5075155;28;20090;-81
2021/06/03 05:14:59;;;;;;;20.00;13.40;;;;;;;20.07;73.05;98839.97;5109062;28;20130;-83
2021/06/03 05:17:25;;;;;;;29.23;14.27;;;;;;;19.81;74.41;98841.41;5060800;28;20086;-80
2021/06/03 05:19:51;;;;;;;18.85;15.30;;;;;;;19.90;74.49;98842.13;5110872;28;20044;-80
2021/06/03 05:22:17;;;;;;;22.92;20.48;;;;;;;20.03;74.19;98831.38;5064129;28;20036;-81
2021/06/03 05:24:43;;;;;;;24.35;21.42;;;;;;;20.05;74.19;98829.31;5078703;28;20055;-79
2021/06/03 05:27:09;;;;;;;25.90;20.42;;;;;;;20.11;73.82;98830.38;5078948;28;20040;-78
2021/06/03 05:29:38;;;;;;;16.38;14.75;;;;;;;20.01;74.04;98829.88;5103161;28;20056;-86
2021/06/03 05:32:04;;;;;;;14.25;12.63;;;;;;;19.97;73.44;98824.03;5082556;28;20044;-89
2021/06/03 05:34:30;;;;;;;12.60;11.35;;;;;;;19.98;73.78;98824.88;5082412;28;20082;-88
2021/06/03 05:36:57;;;;;;;10.65;9.65;;;;;;;19.78;74.13;98821.97;5099941;28;20507;-87
2021/06/03 05:39:24;;;;;;;16.30;9.20;;;;;;;19.62;74.45;98820.34;5051564;28;20044;-94
2021/06/03 05:41:50;;;;;;;10.27;8.55;;;;;;;19.60;75.01;98817.81;5051181;28;20131;-81
2021/06/03 05:44:16;;;;;;;10.95;9.55;;;;;;;19.58;75.19;98830.72;5099096;28;20042;-91
2021/06/03 05:46:42;;;;;;;12.52;10.40;;;;;;;19.67;74.65;98838.75;5049676;28;20181;-91
2021/06/03 05:49:09;;;;;;;13.70;11.68;;;;;;;19.66;75.00;98837.91;5117259;28;20039;-89
2021/06/03 05:51:35;;;;;;;13.52;12.15;;;;;;;19.38;75.26;98824.25;5076911;23;20063;-89
2021/06/03 05:54:01;;;;;;;16.25;12.43;;;;;;;19.47;75.40;98823.09;5061496;28;20048;-89
2021/06/03 05:56:27;;;;;;;15.07;13.52;;;;;;;19.47;75.71;98823.09;5041458;28;20044;-84
2021/06/03 05:58:53;;;;;;;11.27;10.20;;;;;;;19.39;76.29;98825.94;5056141;28;20048;-86
2021/06/03 06:01:20;;;;;;;10.20;8.57;;;;;;;19.29;75.86;98825.38;5022072;28;20084;-86
2021/06/03 06:03:51;;;;;;;9.30;8.40;;;;;;;19.23;76.34;98815.34;5038684;28;20139;-86
2021/06/03 06:06:26;;;;;;;12.25;8.93;;;;;;;19.15;76.62;98814.41;5038100;28;20128;-84
2021/06/03 06:08:57;;;;;;;9.70;8.70;;;;;;;19.04;77.07;98814.91;5055525;28;20049;-90
2021/06/03 06:11:24;;;;;;;10.00;9.00;;;;;;;19.00;77.30;98799.22;5021580;28;20091;-83
2021/06/03 06:13:50;;;;;;;11.57;7.82;;;;;;;19.07;77.25;98794.69;5037293;28;20048;-81
2021/06/03 06:16:16;;;;;;;9.27;7.97;;;;;;;19.19;77.18;98786.94;5055057;28;20504;-87
2021/06/03 06:18:42;;;;;;;10.70;8.30;;;;;;;19.31;76.97;98780.81;5037193;28;20041;-89
2021/06/03 06:21:11;;;;;;;12.63;8.32;;;;;;;19.23;76.48;98771.97;5020897;28;20044;-84
2021/06/03 06:23:45;;;;;;;10.18;8.15;;;;;;;19.08;76.20;98764.72;5035184;28;20040;-83
2021/06/03 06:26:11;;;;;;;10.88;9.52;;;;;;;19.04;76.52;98768.03;5054735;28;20083;-85
2021/06/03 06:28:37;;;;;;;10.68;9.57;;;;;;;18.93;77.68;98755.81;5020143;28;20041;-85
2021/06/03 06:31:05;;;;;;;11.93;9.48;;;;;;;18.81;78.26;98757.34;5020335;28;20076;-81
2021/06/03 06:33:32;;;;;;;11.40;10.25;;;;;;;18.71;78.74;98740.53;5018747;28;20157;-80
2021/06/03 06:35:58;;;;;;;13.88;10.30;;;;;;;18.57;78.93;98724.09;5027942;28;20050;-81
2021/06/03 06:38:24;;;;;;;10.85;9.63;;;;;;;18.75;79.10;98758.94;5032830;28;20044;-82
2021/06/03 06:40:50;;;;;;;15.57;11.23;;;;;;;18.71;78.99;98768.44;5032827;28;20099;-83
2021/06/03 06:43:16;;;;;;;14.18;10.55;;;;;;;18.52;79.57;98771.72;5016984;28;20504;-83
2021/06/03 06:45:43;;;;;;;14.00;12.23;;;;;;;18.52;79.76;98782.53;5016805;28;20041;-85
2021/06/03 06:48:09;;;;;;;13.88;10.98;;;;;;;18.36;80.19;98786.28;5036187;28;20045;-87
2021/06/03 06:50:36;;;;;;;14.55;11.02;;;;;;;18.54;79.62;98794.88;5000368;28;20045;-84
2021/06/03 06:53:04;;;;;;;13.95;11.10;;;;;;;18.69;78.95;98798.41;5033823;28;20144;-90
2021/06/03 06:55:30;;;;;;;11.82;10.55;;;;;;;18.56;78.82;98792.78;5033392;28;20077;-80
2021/06/03 06:57:58;;;;;;;11.90;10.52;;;;;;;18.45;79.40;98790.56;4999762;28;20080;-84
2021/06/03 07:00:26;;;;;;;13.90;10.07;;;;;;;18.42;79.79;98793.63;5001846;28;20516;-86
2021/06/03 07:02:52;;;;;;;12.63;10.50;;;;;;;18.42;80.04;98789.06;5032950;28;20489;-82
2021/06/03 07:05:18;;;;;;;12.32;9.68;;;;;;;18.47;79.69;98787.66;5033382;28;20143;-83
2021/06/03 07:07:44;;;;;;;12.30;10.15;;;;;;;18.34;80.02;98786.44;4986663;28;20041;-83
2021/06/03 07:10:11;;;;;;;14.88;9.57;;;;;;;18.25;79.99;98784.03;5035246;28;20046;-88
2021/06/03 07:12:37;;;;;;;10.80;9.18;;;;;;;18.24;80.41;98783.19;5039417;28;20049;-82
2021/06/03 07:15:05;;;;;;;12.75;10.23;;;;;;;18.27;80.20;98782.81;5037399;28;20060;-82
2021/06/03 07:17:31;;;;;;;12.70;10.47;;;;;;;18.22;80.02;98787.94;5024509;28;20041;-83
2021/06/03 07:19:57;;;;;;;12.60;10.60;;;;;;;18.34;79.79;98799.97;5036196;28;20160;-85
2021/06/03 07:22:24;;;;;;;15.27;12.15;;;;;;;18.43;79.49;98798.03;5016461;28;20128;-82
2021/06/03 07:24:50;;;;;;;16.63;12.55;;;;;;;18.33;79.44;98787.47;4999000;28;20128;-82
2021/06/03 07:27:16;;;;;;;15.68;11.73;;;;;;;18.44;79.61;98799.72;4967238;28;20049;-82
2021/06/03 07:29:44;;;;;;;12.40;11.20;;;;;;;18.40;79.33;98803.81;4999577;28;20041;-86
2021/06/03 07:32:13;;;;;;;13.98;11.02;;;;;;;18.39;79.07;98812.94;4982924;28;20057;-88
2021/06/03 07:34:39;;;;;;;11.95;10.70;;;;;;;18.29;79.57;98828.63;4998836;28;20038;-84
2021/06/03 07:37:09;;;;;;;16.17;12.75;;;;;;;18.30;79.71;98846.53;5016039;28;20049;-81
2021/06/03 07:39:38;;;;;;;15.07;11.60;;;;;;;18.41;79.55;98865.88;5001140;28;20052;-86
2021/06/03 07:42:04;;;;;;;12.80;10.95;;;;;;;18.40;79.19;98863.34;5017902;28;20049;-88
2021/06/03 07:44:30;;;;;;;13.43;11.43;;;;;;;18.51;79.21;98871.03;5004296;28;20040;-84
2021/06/03 07:46:56;;;;;;;12.23;10.93;;;;;;;18.48;79.01;98882.22;5015155;28;20068;-79
2021/06/03 07:49:22;;;;;;;14.13;11.07;;;;;;;18.54;79.06;98873.38;5015163;28;20048;-91
2021/06/03 07:51:48;;;;;;;12.70;11.15;;;;;;;18.46;79.00;98873.41;5034217;28;20057;-85
2021/06/03 07:54:14;;;;;;;13.82;11.60;;;;;;;18.57;78.96;98889.22;5016665;28;20041;-84
2021/06/03 07:56:40;;;;;;;16.67;11.45;;;;;;;18.49;79.48;98889.28;5033387;28;20453;-84
2021/06/03 07:59:07;;;;;;;14.02;11.15;;;;;;;18.52;79.17;98896.22;5001461;28;20531;-84
2021/06/03 08:01:34;;;;;;;14.80;12.05;;;;;;;18.60;79.55;98910.50;5033014;28;20053;-87
2021/06/03 08:04:00;;;;;;;12.55;11.35;;;;;;;18.76;78.53;98903.25;5032704;28;20053;-84
2021/06/03 08:06:26;;;;;;;15.40;13.15;;;;;;;18.61;79.26;98903.22;5034235;28;20049;-83
2021/06/03 08:08:52;;;;;;;15.60;12.82;;;;;;;18.69;79.02;98909.41;5014978;28;20531;-86
2021/06/03 08:11:17;;;;;;;14.93;13.23;;;;;;;18.79;79.22;98916.44;4982672;28;20572;-85
2021/06/03 08:13:43;;;;;;;18.85;12.93;;;;;;;18.72;78.82;98926.31;5031702;28;20492;-84
2021/06/03 08:16:09;;;;;;;16.08;12.15;;;;;;;18.87;78.91;98925.31;5031554;28;20133;-82
2021/06/03 08:18:38;;;;;;;15.95;11.77;;;;;;;18.86;78.56;98936.34;5001569;28;20416;-84
2021/06/03 08:21:04;;;;;;;17.42;12.30;;;;;;;18.96;78.44;98942.31;5037869;28;20037;-87
2021/06/03 08:23:31;;;;;;;13.55;11.23;;;;;;;18.84;77.97;98936.53;5019061;28;20042;-85
2021/06/03 08:25:57;;;;;;;11.88;9.57;;;;;;;18.74;78.08;98940.53;5034700;28;20052;-87
2021/06/03 08:28:24;;;;;;;11.82;10.18;;;;;;;18.57;78.69;98953.34;5031601;28;20370;-85
2021/06/03 08:30:51;;;;;;;13.40;9.80;;;;;;;18.43;79.20;98965.81;4999379;28;20497;-84
2021/06/03 08:33:18;;;;;;;11.63;9.63;;;;;;;18.41;79.29;98967.84;5000055;28;20068;-88
2021/06/03 08:35:44;;;;;;;11.20;9.82;;;;;;;18.32;79.49;98974.38;5008454;28;20053;-86
2021/06/03 08:38:10;;;;;;;16.95;12.32;;;;;;;18.19;80.46;98975.81;4999027;28;20065;-86
2021/06/03 08:40:42;;;;;;;16.55;11.13;;;;;;;18.30;80.45;98979.13;5015107;28;20049;-85
2021/06/03 08:43:08;;;;;;;13.75;11.82;;;;;;;18.33;80.37;98982.31;5032226;28;20097;-86
2021/06/03 08:45:35;;;;;;;16.08;11.75;;;;;;;18.38;80.11;98982.59;5016392;28;20554;-87
2021/06/03 08:48:01;;;;;;;13.25;11.82;;;;;;;18.42;80.23;98988.47;5015883;28;20516;-85
2021/06/03 08:50:29;;;;;;;14.68;11.73;;;;;;;18.30;80.37;98992.66;4999111;28;20041;-84
2021/06/03 08:52:55;;;;;;;15.45;11.77;;;;;;;18.28;80.55;98990.13;5032938;28;20416;-86
2021/06/03 08:58:07;;;;;;;15.73;12.45;;;;;;;18.42;80.76;98991.19;5035043;28;20528;-86
2021/06/03 09:00:33;;;;;;;15.38;12.07;;;;;;;18.41;80.25;98989.50;5034855;28;20073;-87
2021/06/03 09:03:00;;;;;;;17.38;12.10;;;;;;;18.47;80.18;99001.47;5034855;28;20531;-88
2021/06/03 09:05:26;;;;;;;14.30;12.93;;;;;;;18.56;80.50;98997.69;5036340;28;20404;-86
2021/06/03 09:07:52;;;;;;;18.40;13.48;;;;;;;18.52;80.07;98999.91;5034879;28;20053;-88
2021/06/03 09:10:30;;;;;;;16.92;13.05;;;;;;;18.58;80.18;99010.00;5035003;28;20052;-87
2021/06/03 09:13:07;;;;;;;17.55;14.50;;;;;;;18.43;80.66;98992.88;5018813;28;20450;-88
2021/06/03 09:15:33;;;;;;;16.08;13.25;;;;;;;18.38;80.69;99001.53;5018488;28;20101;-82
2021/06/03 09:18:00;;;;;;;17.52;12.82;;;;;;;18.51;80.80;99003.66;5004109;28;20057;-82
2021/06/03 09:20:26;;;;;;;20.77;14.10;;;;;;;18.60;80.69;98993.56;5039639;28;20053;-90
2021/06/03 09:22:53;;;;;;;18.52;13.85;;;;;;;18.64;80.49;99005.72;5017725;28;20089;-86
2021/06/03 09:25:31;;;;;;;16.75;13.85;;;;;;;18.77;80.50;99005.13;5027225;28;20060;-82
2021/06/03 09:28:31;;;;;;;17.33;12.60;;;;;;;18.84;79.68;99011.50;5034571;28;20473;-80
2021/06/03 09:31:04;;;;;;;15.85;12.98;;;;;;;18.84;79.61;99009.66;5017798;28;20076;-79
2021/06/03 09:33:46;;;;;;;16.80;12.55;;;;;;;18.80;79.66;99015.59;5035012;28;20037;-79
2021/06/03 09:36:40;;;;;;;15.30;11.95;;;;;;;18.75;79.75;99002.59;5050284;28;20096;-79
2021/06/03 09:39:18;;;;;;;13.73;12.18;;;;;;;18.64;79.81;98998.44;5031826;28;20461;-78
2021/06/03 09:41:46;;;;;;;17.27;12.43;;;;;;;18.60;80.46;98997.13;5034851;28;20045;-80
2021/06/03 09:44:23;;;;;;;14.40;12.57;;;;;;;18.64;80.72;98989.47;5034588;28;20053;-79
2021/06/03 09:47:02;;;;;;;16.40;12.20;;;;;;;18.51;80.37;98979.28;5017632;28;20045;-79
2021/06/03 09:49:30;;;;;;;14.10;11.43;;;;;;;18.49;80.47;98983.19;5033878;28;20515;-78
2021/06/03 09:51:58;;;;;;;15.73;11.73;;;;;;;18.55;80.08;98983.31;5033676;28;20504;-79
2021/06/03 09:54:25;;;;;;;14.13;11.80;;;;;;;18.42;80.60;98985.78;5033903;28;20129;-78
2021/06/03 09:56:53;;;;;;;15.63;12.40;;;;;;;18.47;80.60;98977.97;5050328;28;20043;-78
2021/06/03 09:59:40;;;;;;;13.93;12.47;;;;;;;18.52;80.29;98986.38;5034030;28;20049;-78
2021/06/03 10:02:17;;;;;;;16.30;12.38;;;;;;;18.45;80.85;98971.88;5033832;28;20045;-78
2021/06/03 10:04:45;;;;;;;16.08;12.10;;;;;;;18.57;80.57;98980.41;5035249;28;20041;-79
2021/06/03 10:07:13;;;;;;;12.98;10.35;;;;;;;18.55;80.69;98975.19;5033695;28;20041;-79
2021/06/03 10:09:52;;;;;;;15.15;11.20;;;;;;;18.36;81.21;98970.28;5000625;28;20052;-78
2021/06/03 10:12:27;;;;;;;17.70;10.45;;;;;;;18.40;81.28;98977.00;5033668;28;20081;-78
2021/06/03 10:15:01;;;;;;;10.48;9.38;;;;;;;18.43;80.06;98979.34;5017454;28;20097;-78
2021/06/03 10:17:29;;;;;;;10.07;8.32;;;;;;;18.33;79.25;98970.63;5016566;28;20049;-79
2021/06/03 10:20:00;;;;;;;8.70;7.70;;;;;;;18.43;78.36;98971.25;5016898;28;20062;-78
2021/06/03 10:22:31;;;;;;;11.05;7.43;;;;;;;18.23;79.02;98959.22;5016828;28;20053;-77
2021/06/03 10:25:07;;;;;;;11.27;7.25;;;;;;;18.31;79.37;98961.84;5050103;28;20112;-78
2021/06/03 10:27:46;;;;;;;10.52;8.82;;;;;;;18.33;79.24;98965.22;5033770;28;20037;-78
2021/06/03 10:30:15;;;;;;;;;;;;;;;18.42;79.42;98964.13;5034112;28;20386;-78
2021/06/03 10:32:42;;;;;;;12.35;10.10;;;;;;;18.33;79.52;98959.81;5016694;28;19987;-79
2021/06/03 10:35:13;;;;;;;11.90;9.80;;;;;;;18.43;79.53;98960.41;5033063;28;20045;-79
2021/06/03 10:37:41;;;;;;;14.07;12.35;;;;;;;18.33;80.08;98949.84;5017117;28;20047;-78
2021/06/03 10:40:10;;;;;;;18.85;16.70;;;;;;;18.37;79.75;98958.44;5016598;28;20369;-77
2021/06/03 10:42:36;;;;;;;20.08;18.08;;;;;;;18.41;79.21;98947.03;4984087;28;20099;-76
2021/06/03 10:45:06;;;;;;;21.17;19.10;;;;;;;18.30;79.30;98954.75;5000150;28;20136;-78
2021/06/03 10:47:33;;;;;;;17.05;12.95;;;;;;;18.27;78.35;98938.88;5016540;28;20044;-78
2021/06/03 10:50:00;;;;;;;11.88;10.38;;;;;;;18.24;77.77;98934.69;5016474;28;20392;-78
2021/06/03 10:52:28;;;;;;;18.47;16.60;;;;;;;18.15;78.38;98920.38;5016434;28;20523;-80
2021/06/03 10:54:57;;;;;;;27.75;20.70;;;;;;;18.24;79.20;98936.53;5032842;28;20481;-78
2021/06/03 10:57:44;;;;;;;19.08;16.13;;;;;;;18.17;79.24;98920.22;5016317;28;20095;-79
2021/06/03 11:00:36;;;;;;;24.15;18.58;;;;;;;18.19;79.75;98927.09;5016308;28;20049;-80
2021/06/03 11:03:27;;;;;;;16.13;14.43;;;;;;;18.36;80.06;98935.09;5032640;28;20512;-77
2021/06/03 11:06:18;;;;;;;16.40;10.52;;;;;;;18.52;79.49;98934.94;5017774;28;20493;-79
2021/06/03 11:08:48;;;;;;;11.55;9.27;;;;;;;18.61;78.89;98936.53;5032121;28;20044;-80
2021/06/03 11:11:14;;;;;;;14.55;8.30;;;;;;;18.65;78.45;98924.34;5032639;28;20068;-78
2021/06/03 11:13:46;;;;;;;11.30;8.65;;;;;;;18.83;78.06;98934.00;5032108;28;20077;-78
2021/06/03 11:16:21;;;;;;;9.27;8.38;;;;;;;18.91;78.10;98934.72;5016046;28;20076;-78
2021/06/03 11:18:48;;;;;;;13.77;7.97;;;;;;;19.07;77.58;98941.84;5015483;28;20417;-78
2021/06/03 11:21:35;;;;;;;8.35;7.63;;;;;;;19.04;77.71;98944.94;5032217;28;20118;-78
2021/06/03 11:24:07;;;;;;;8.98;7.20;;;;;;;19.19;77.46;98949.50;5015668;28;20037;-77
2021/06/03 11:26:39;;;;;;;8.30;7.22;;;;;;;19.14;77.44;98953.63;5032581;28;20399;-79
2021/06/03 11:29:19;;;;;;;8.25;7.03;;;;;;;19.25;77.37;98963.13;5032259;28;20080;-80